Time;durP1;ratioP1;P1;durP2;ratioP2;P2;SDS_P1;SDS_P2;PMS_P1;PMS_P2;Temp;Humidity;BMP_temperature;BMP_pressure;BME280_temperature;BME280_humidity;BME280_pressure;Samples;Min_cycle;Max_cycle;Signal;HPM_P1;HPM_P2
2023/01/12 00:00:28;;;;;;;;;;;;;;;5.80;82.67;100719.33;107756;1256;70225;-82
2023/01/12 00:03:15;;;;;;;;;;;;;;;5.81;82.73;100720.59;107536;1256;59689;-83
2023/01/12 00:05:48;;;;;;;;;;;;;;;5.84;82.86;100721.76;107207;1256;61222;-87
2023/01/12 00:08:32;;;;;;;;;;;;;;;5.86;82.92;100719.43;106992;1256;124657;-87
2023/01/12 00:10:59;;;;;;;;;;;;;;;5.88;82.85;100721.92;107070;1260;67069;-83
2023/01/12 00:16:34;;;;;;;;;;;;;;;5.87;82.88;100719.29;107006;1264;61255;-88
2023/01/12 00:19:02;;;;;;;;;;;;;;;5.86;82.86;100722.20;107117;1256;125152;-87
2023/01/12 00:22:13;;;;;;;;;;;;;;;5.83;82.81;100725.37;107164;1263;75073;-88
2023/01/12 00:24:48;;;;;;;;;;;;;;;5.81;82.94;100724.10;107294;1260;124765;-86
2023/01/12 00:27:17;;;;;;;;;;;;;;;5.82;83.04;100725.16;107427;1260;72746;-87
2023/01/12 00:29:45;;;;;;;;;;;;;;;5.86;83.25;100727.79;107256;1256;59344;-83
2023/01/12 00:32:13;;;;;;;;;;;;;;;5.93;83.33;100721.12;107382;1259;124613;-82
2023/01/12 00:34:40;;;;;;;;;;;;;;;5.99;83.36;100715.30;107416;1256;74682;-81
2023/01/12 00:37:07;;;;;;;;;;;;;;;6.04;83.31;100719.02;107538;1260;125320;-81
2023/01/12 00:39:35;;;;;;;;;;;;;;;6.11;83.33;100722.24;107690;1256;70806;-81
2023/01/12 00:45:23;;;;;;;;;;;;;;;6.19;83.31;100724.51;107376;1256;60677;-85
2023/01/12 00:47:51;;;;;;;;;;;;;;;6.23;83.26;100729.41;107465;1261;74915;-85
2023/01/12 00:50:19;;;;;;;;;;;;;;;6.28;83.33;100731.34;107574;1259;124771;-85
2023/01/12 00:52:47;;;;;;;;;;;;;;;6.33;83.18;100737.45;107404;1259;71571;-81
2023/01/12 00:55:14;;;;;;;;;;;;;;;6.38;83.32;100739.60;107808;1257;125122;-82
2023/01/12 00:57:41;;;;;;;;;;;;;;;6.42;83.31;100737.52;107854;1256;59914;-81
2023/01/12 01:00:08;;;;;;;;;;;;;;;6.47;83.32;100737.85;107617;1257;74425;-81
2023/01/12 01:02:58;;;;;;;;;;;;;;;6.50;83.26;100739.58;107127;1258;125350;-86
2023/01/12 01:05:26;;;;;;;;;;;;;;;6.53;83.28;100736.02;107160;1261;72499;-81
2023/01/12 01:07:59;;;;;;;;;;;;;;;6.53;83.17;100739.70;107256;1256;124847;-85
2023/01/12 01:10:27;;;;;;;;;;;;;;;6.52;83.10;100741.56;107186;1256;61286;-81
2023/01/12 01:13:00;;;;;;;;;;;;;;;6.47;82.91;100742.92;107125;1256;73820;-85
2023/01/12 01:15:37;;;;;;;;;;;;;;;6.40;82.91;100742.98;107325;1262;66844;-86
2023/01/12 01:18:16;;;;;;;;;;;;;;;6.33;82.91;100741.33;107430;1256;71266;-86
2023/01/12 01:21:11;;;;;;;;;;;;;;;6.27;82.86;100736.71;107241;1259;60310;-86
2023/01/12 01:23:39;;;;;;;;;;;;;;;6.22;82.97;100736.00;107847;1257;59560;-81
2023/01/12 01:26:07;;;;;;;;;;;;;;;6.17;82.89;100735.39;107466;1259;124661;-81
2023/01/12 01:28:35;;;;;;;;;;;;;;;6.12;83.01;100738.69;107266;1258;66938;-81
2023/01/12 01:31:06;;;;;;;;;;;;;;;6.08;83.04;100738.18;107579;1256;125280;-81
2023/01/12 01:33:34;;;;;;;;;;;;;;;6.03;83.02;100741.77;107418;1257;61281;-82
2023/01/12 01:36:01;;;;;;;;;;;;;;;6.02;83.10;100750.60;107612;1256;61257;-82
2023/01/12 01:38:45;;;;;;;;;;;;;;;5.97;83.09;100746.59;107425;1256;124608;-86
2023/01/12 01:41:32;;;;;;;;;;;;;;;5.94;83.23;100739.61;107072;1256;67859;-86
2023/01/12 01:44:02;;;;;;;;;;;;;;;5.93;83.25;100738.70;106983;1256;124696;-86
2023/01/12 01:46:48;;;;;;;;;;;;;;;5.89;83.21;100744.10;107136;1256;61298;-87
2023/01/12 01:49:26;;;;;;;;;;;;;;;5.85;83.23;100738.73;107595;1260;124879;-82
2023/01/12 01:52:00;;;;;;;;;;;;;;;5.84;83.32;100735.55;107187;1256;74639;-86
2023/01/12 01:54:28;;;;;;;;;;;;;;;5.81;83.28;100736.79;107365;1258;67616;-82
2023/01/12 01:57:01;;;;;;;;;;;;;;;5.77;83.32;100741.51;107221;1257;125136;-82
2023/01/12 01:59:31;;;;;;;;;;;;;;;5.74;83.37;100742.95;107066;1257;61319;-87
2023/01/12 02:02:05;;;;;;;;;;;;;;;5.73;83.46;100746.71;106982;1256;124925;-87
2023/01/12 02:04:35;;;;;;;;;;;;;;;5.71;83.35;100748.20;107210;1263;73542;-88
2023/01/12 02:07:17;;;;;;;;;;;;;;;5.69;83.44;100745.10;107140;1258;124755;-88
2023/01/12 02:09:53;;;;;;;;;;;;;;;5.65;83.47;100742.88;106905;1259;73125;-87
2023/01/12 02:16:22;;;;;;;;;;;;;;;5.59;83.43;100746.95;107042;1256;61260;-87
2023/01/12 02:19:01;;;;;;;;;;;;;;;5.55;83.57;100738.44;107532;1257;75290;-83
2023/01/12 02:21:34;;;;;;;;;;;;;;;5.53;83.68;100733.98;107154;1259;67020;-87
2023/01/12 02:27:09;;;;;;;;;;;;;;;5.48;83.57;100738.12;107543;1256;124639;-82
2023/01/12 02:29:39;;;;;;;;;;;;;;;5.45;83.55;100738.67;107981;1262;60673;-82
2023/01/12 02:32:19;;;;;;;;;;;;;;;5.42;83.54;100742.35;107835;1258;125562;-82
2023/01/12 02:34:53;;;;;;;;;;;;;;;5.37;83.58;100747.52;107730;1258;67550;-84
2023/01/12 02:37:34;;;;;;;;;;;;;;;5.32;83.47;100754.95;107240;1258;125319;-83
2023/01/12 02:40:22;;;;;;;;;;;;;;;5.25;83.39;100755.35;107491;1256;59656;-82
2023/01/12 02:42:53;;;;;;;;;;;;;;;5.20;83.44;100749.02;107404;1258;59779;-82
2023/01/12 02:45:49;;;;;;;;;;;;;;;5.15;83.48;100745.66;107563;1256;125034;-82
2023/01/12 02:48:23;;;;;;;;;;;;;;;5.11;83.56;100750.49;107227;1257;67391;-83
2023/01/12 02:51:10;;;;;;;;;;;;;;;5.07;83.72;100753.09;107277;1256;125120;-82
2023/01/12 02:53:45;;;;;;;;;;;;;;;5.09;83.88;100759.59;107371;1263;62854;-82
2023/01/12 02:56:15;;;;;;;;;;;;;;;5.08;83.97;100763.91;107257;1257;124605;-82
2023/01/12 02:58:45;;;;;;;;;;;;;;;5.09;84.14;100758.95;107734;1257;73086;-82
2023/01/12 03:01:12;;;;;;;;;;;;;;;5.09;84.11;100759.11;107619;1256;125014;-82
2023/01/12 03:03:39;;;;;;;;;;;;;;;5.10;84.22;100762.27;107652;1256;73110;-82
2023/01/12 03:06:07;;;;;;;;;;;;;;;5.09;84.14;100761.02;107543;1256;61245;-81
2023/01/12 03:08:40;;;;;;;;;;;;;;;5.05;84.22;100759.30;107383;1258;125325;-86
2023/01/12 03:11:11;;;;;;;;;;;;;;;5.01;84.19;100761.68;107029;1263;74474;-83
2023/01/12 03:13:40;;;;;;;;;;;;;;;4.97;84.12;100760.63;107217;1259;125119;-83
2023/01/12 03:16:08;;;;;;;;;;;;;;;4.92;84.21;100755.52;107282;1259;72748;-83
2023/01/12 03:18:38;;;;;;;;;;;;;;;4.89;84.39;100753.29;107618;1256;59765;-83
2023/01/12 03:21:27;;;;;;;;;;;;;;;4.88;84.58;100762.13;108285;1257;125329;-83
2023/01/12 03:24:01;;;;;;;;;;;;;;;4.93;84.79;100762.52;107749;1258;74700;-83
2023/01/12 03:26:28;;;;;;;;;;;;;;;4.98;85.00;100764.67;107694;1259;125055;-82
2023/01/12 03:29:04;;;;;;;;;;;;;;;5.05;85.18;100770.91;107695;1257;71409;-83
2023/01/12 03:31:31;;;;;;;;;;;;;;;5.13;85.40;100773.58;107341;1263;125013;-82
2023/01/12 03:33:58;;;;;;;;;;;;;;;5.20;85.43;100778.79;107569;1262;61174;-82
2023/01/12 03:36:28;;;;;;;;;;;;;;;5.28;85.54;100778.61;107871;1258;75163;-83
2023/01/12 03:39:00;;;;;;;;;;;;;;;5.32;85.47;100772.35;107773;1257;124733;-82
2023/01/12 03:41:44;;;;;;;;;;;;;;;5.39;85.56;100769.02;107785;1257;72715;-82
2023/01/12 03:44:16;;;;;;;;;;;;;;;5.44;85.52;100771.87;107806;1262;124673;-83
2023/01/12 03:46:43;;;;;;;;;;;;;;;5.49;85.53;100771.23;107819;1263;61185;-83
2023/01/12 03:49:31;;;;;;;;;;;;;;;5.48;85.32;100767.02;107393;1256;125719;-82
2023/01/12 03:51:59;;;;;;;;;;;;;;;5.42;85.02;100765.70;107413;1262;65796;-83
2023/01/12 03:55:00;;;;;;;;;;;;;;;5.38;84.99;100764.27;107439;1256;70931;-86
2023/01/12 03:57:38;;;;;;;;;;;;;;;5.39;85.27;100765.73;107290;1257;61244;-86
2023/01/12 04:00:23;;;;;;;;;;;;;;;5.43;85.42;100766.27;107330;1257;59290;-87
2023/01/12 04:03:07;;;;;;;;;;;;;;;5.49;85.54;100763.05;107063;1265;124578;-87
2023/01/12 04:05:45;;;;;;;;;;;;;;;5.53;85.49;100756.96;107421;1256;66768;-82
2023/01/12 04:08:12;;;;;;;;;;;;;;;5.55;85.48;100752.38;107445;1256;125200;-83
2023/01/12 04:10:40;;;;;;;;;;;;;;;5.54;85.32;100755.27;107646;1258;59519;-82
2023/01/12 04:13:08;;;;;;;;;;;;;;;5.53;85.27;100752.77;107422;1257;125206;-86
2023/01/12 04:15:53;;;;;;;;;;;;;;;5.55;85.39;100743.98;107094;1256;74693;-86
2023/01/12 04:18:27;;;;;;;;;;;;;;;5.58;85.52;100743.61;107188;1261;67058;-85
2023/01/12 04:21:00;;;;;;;;;;;;;;;5.61;85.51;100738.00;107113;1257;124624;-86
2023/01/12 04:23:27;;;;;;;;;;;;;;;5.63;85.50;100731.48;107132;1259;61232;-86
2023/01/12 04:26:01;;;;;;;;;;;;;;;5.64;85.42;100731.33;106922;1257;125186;-86
2023/01/12 04:28:28;;;;;;;;;;;;;;;5.65;85.44;100728.08;107111;1258;74745;-86
2023/01/12 04:30:57;;;;;;;;;;;;;;;5.68;85.44;100725.23;107379;1258;66128;-86
2023/01/12 04:33:43;;;;;;;;;;;;;;;5.68;85.37;100723.84;107111;1257;124667;-86
2023/01/12 04:36:13;;;;;;;;;;;;;;;5.66;85.23;100722.55;107056;1257;61282;-86
2023/01/12 04:38:52;;;;;;;;;;;;;;;5.63;85.20;100723.83;106996;1262;125300;-86
2023/01/12 04:41:19;;;;;;;;;;;;;;;5.63;85.46;100729.55;106958;1259;73488;-86
2023/01/12 04:43:58;;;;;;;;;;;;;;;5.68;85.53;100738.13;106959;1260;124941;-87
2023/01/12 04:46:33;;;;;;;;;;;;;;;5.73;85.44;100732.23;107119;1263;70364;-87
2023/01/12 04:49:15;;;;;;;;;;;;;;;5.70;85.23;100724.45;107277;1261;61451;-88
2023/01/12 04:51:55;;;;;;;;;;;;;;;5.60;84.97;100714.28;106969;1257;61263;-87
2023/01/12 04:54:36;;;;;;;;;;;;;;;5.50;84.91;100714.70;107090;1262;72905;-88
2023/01/12 04:57:04;;;;;;;;;;;;;;;5.38;84.70;100717.29;106854;1257;124775;-87
2023/01/12 04:59:37;;;;;;;;;;;;;;;5.30;84.88;100722.17;107075;1257;71418;-87
2023/01/12 05:02:24;;;;;;;;;;;;;;;5.33;85.30;100728.73;106980;1256;125188;-88
2023/01/12 05:04:51;;;;;;;;;;;;;;;5.44;85.75;100730.27;107026;1262;61375;-87
2023/01/12 05:07:19;;;;;;;;;;;;;;;5.54;85.79;100731.09;106873;1262;125066;-86
2023/01/12 05:12:51;;;;;;;;;;;;;;;5.77;85.94;100739.73;107380;1258;71538;-90
2023/01/12 05:15:50;;;;;;;;;;;;;;;5.84;85.89;100740.59;107198;1258;124746;-88
2023/01/12 05:18:21;;;;;;;;;;;;;;;5.93;85.82;100736.42;107376;1258;61187;-89
2023/01/12 05:21:03;;;;;;;;;;;;;;;5.95;85.57;100733.77;107149;1258;124690;-89
2023/01/12 05:23:30;;;;;;;;;;;;;;;5.92;85.27;100736.25;107232;1259;67329;-90
2023/01/12 05:26:12;;;;;;;;;;;;;;;5.89;85.19;100735.58;107074;1258;124963;-88
2023/01/12 05:28:41;;;;;;;;;;;;;;;5.91;85.24;100734.23;107109;1259;61363;-89
2023/01/12 05:31:22;;;;;;;;;;;;;;;5.92;85.20;100729.09;107022;1256;61234;-88
2023/01/12 05:33:50;;;;;;;;;;;;;;;5.89;85.09;100724.59;107057;1262;73965;-87
2023/01/12 05:36:31;;;;;;;;;;;;;;;5.84;85.09;100724.56;106927;1260;66412;-85
2023/01/12 05:39:11;;;;;;;;;;;;;;;5.77;84.78;100717.78;107043;1262;70450;-85
2023/01/12 05:45:02;;;;;;;;;;;;;;;5.56;84.72;100712.71;107037;1262;124634;-89
2023/01/12 05:50:51;;;;;;;;;;;;;;;5.52;85.11;100719.45;107129;1258;68358;-89
2023/01/12 05:53:24;;;;;;;;;;;;;;;5.57;85.52;100715.51;107139;1257;71818;-87
2023/01/12 05:55:58;;;;;;;;;;;;;;;5.66;85.62;100719.23;107053;1259;60616;-87
2023/01/12 05:58:27;;;;;;;;;;;;;;;5.72;85.55;100721.58;107158;1262;60617;-87
2023/01/12 06:01:22;;;;;;;;;;;;;;;5.74;85.50;100720.46;107203;1262;73367;-86
2023/01/12 06:03:53;;;;;;;;;;;;;;;5.76;85.50;100712.90;107308;1258;66319;-87
2023/01/12 06:06:21;;;;;;;;;;;;;;;5.77;85.35;100708.57;107236;1256;72480;-88
2023/01/12 06:09:00;;;;;;;;;;;;;;;5.76;85.29;100703.12;106968;1262;124702;-89
2023/01/12 06:14:18;;;;;;;;;;;;;;;5.67;85.01;100699.80;106901;1257;124841;-88
2023/01/12 06:17:00;;;;;;;;;;;;;;;5.60;84.96;100703.14;106989;1263;66892;-89
2023/01/12 06:19:29;;;;;;;;;;;;;;;5.55;85.04;100710.59;106958;1263;71590;-87
2023/01/12 06:21:58;;;;;;;;;;;;;;;5.53;85.11;100714.30;107083;1258;61175;-86
2023/01/12 06:24:27;;;;;;;;;;;;;;;5.53;85.23;100716.40;107062;1258;61190;-87
2023/01/12 06:26:54;;;;;;;;;;;;;;;5.54;85.28;100721.98;107011;1258;124797;-85
2023/01/12 06:29:22;;;;;;;;;;;;;;;5.59;85.56;100722.25;107216;1262;65570;-85
2023/01/12 06:31:49;;;;;;;;;;;;;;;5.67;85.68;100722.94;107234;1262;125334;-85
2023/01/12 06:34:37;;;;;;;;;;;;;;;5.75;85.74;100725.75;107330;1262;61240;-85
2023/01/12 06:37:07;;;;;;;;;;;;;;;5.85;85.75;100723.55;107160;1259;61084;-85
2023/01/12 06:39:55;;;;;;;;;;;;;;;5.93;85.66;100721.31;107030;1261;125034;-85
2023/01/12 06:42:44;;;;;;;;;;;;;;;5.99;85.59;100712.34;107191;1262;67323;-85
2023/01/12 06:45:34;;;;;;;;;;;;;;;6.05;85.52;100708.96;107193;1262;124893;-85
2023/01/12 06:48:01;;;;;;;;;;;;;;;6.12;85.43;100705.23;107447;1260;61373;-83
2023/01/12 06:50:32;;;;;;;;;;;;;;;6.17;85.39;100704.02;107378;1260;124824;-83
2023/01/12 06:53:02;;;;;;;;;;;;;;;6.22;85.39;100701.14;107159;1257;75730;-83
2023/01/12 06:55:31;;;;;;;;;;;;;;;6.25;85.18;100693.94;106796;1265;66940;-83
2023/01/12 06:58:01;;;;;;;;;;;;;;;6.23;85.02;100691.42;107169;1257;73188;-83
2023/01/12 07:00:28;;;;;;;;;;;;;;;6.23;84.97;100701.33;107368;1257;61352;-83
2023/01/12 07:02:57;;;;;;;;;;;;;;;6.24;84.91;100707.98;107401;1258;124810;-85
2023/01/12 07:05:25;;;;;;;;;;;;;;;6.27;84.95;100706.02;107105;1256;73920;-85
2023/01/12 07:08:17;;;;;;;;;;;;;;;6.31;84.90;100704.98;106869;1260;124847;-85
2023/01/12 07:10:45;;;;;;;;;;;;;;;6.35;84.86;100700.77;106943;1259;73520;-84
2023/01/12 07:13:12;;;;;;;;;;;;;;;6.39;84.85;100699.56;107006;1259;61148;-83
2023/01/12 07:15:41;;;;;;;;;;;;;;;6.41;84.78;100695.79;106889;1257;125488;-85
2023/01/12 07:18:16;;;;;;;;;;;;;;;6.45;84.85;100698.41;107114;1260;73082;-84
2023/01/12 07:20:44;;;;;;;;;;;;;;;6.49;84.71;100693.68;106975;1258;124899;-85
2023/01/12 07:23:12;;;;;;;;;;;;;;;6.51;84.70;100693.22;107141;1261;72603;-85
2023/01/12 07:25:52;;;;;;;;;;;;;;;6.54;84.70;100691.80;107105;1262;124751;-83
2023/01/12 07:28:24;;;;;;;;;;;;;;;6.58;84.64;100691.27;107381;1257;59842;-84
2023/01/12 07:30:51;;;;;;;;;;;;;;;6.62;84.64;100683.40;107218;1257;74703;-83
2023/01/12 07:33:18;;;;;;;;;;;;;;;6.66;84.49;100672.38;107589;1259;124924;-83
2023/01/12 07:35:45;;;;;;;;;;;;;;;6.70;84.45;100672.36;107690;1256;73337;-83
2023/01/12 07:38:13;;;;;;;;;;;;;;;6.75;84.33;100670.48;107550;1257;124865;-86
2023/01/12 07:40:41;;;;;;;;;;;;;;;6.78;84.15;100672.88;107301;1257;61174;-86
2023/01/12 07:43:08;;;;;;;;;;;;;;;6.81;84.12;100674.17;107599;1258;73720;-86
2023/01/12 07:45:37;;;;;;;;;;;;;;;6.83;83.97;100668.67;107192;1257;124649;-86
2023/01/12 07:48:04;;;;;;;;;;;;;;;6.87;83.87;100672.84;107291;1258;71725;-86
2023/01/12 07:50:31;;;;;;;;;;;;;;;6.87;83.76;100673.75;107353;1258;124720;-86
2023/01/12 07:53:01;;;;;;;;;;;;;;;6.88;83.57;100670.63;107338;1257;61199;-86
2023/01/12 07:55:31;;;;;;;;;;;;;;;6.89;83.57;100667.51;107241;1258;74650;-86
2023/01/12 07:58:02;;;;;;;;;;;;;;;6.90;83.50;100662.15;107236;1257;68398;-86
2023/01/12 08:00:31;;;;;;;;;;;;;;;6.92;83.47;100667.11;107320;1258;73812;-86
2023/01/12 08:03:05;;;;;;;;;;;;;;;6.94;83.47;100668.60;107409;1258;125339;-86
2023/01/12 08:05:34;;;;;;;;;;;;;;;6.99;83.41;100664.23;107556;1257;60102;-84
2023/01/12 08:08:01;;;;;;;;;;;;;;;7.03;83.31;100667.35;107333;1257;125259;-85
2023/01/12 08:10:28;;;;;;;;;;;;;;;7.06;83.20;100662.59;107528;1260;67078;-85
2023/01/12 08:12:55;;;;;;;;;;;;;;;7.09;83.10;100662.36;107372;1260;72722;-86
2023/01/12 08:15:22;;;;;;;;;;;;;;;7.14;83.07;100662.89;107369;1257;125060;-84
2023/01/12 08:18:08;;;;;;;;;;;;;;;7.18;82.99;100659.91;108404;1257;60010;-85
2023/01/12 08:20:39;;;;;;;;;;;;;;;7.22;82.83;100661.61;107213;1257;124777;-85
2023/01/12 08:23:12;;;;;;;;;;;;;;;7.24;82.71;100663.77;107491;1260;66854;-85
2023/01/12 08:25:43;;;;;;;;;;;;;;;7.26;82.63;100660.36;107321;1260;124971;-84
2023/01/12 08:28:16;;;;;;;;;;;;;;;7.27;82.46;100656.36;106769;1258;299446;-85
2023/01/12 08:30:53;;;;;;;;;;;;;;;7.22;82.17;100657.41;107053;1257;61309;-85
2023/01/12 08:33:21;;;;;;;;;;;;;;;7.24;82.48;100652.08;106775;1260;124785;-85
2023/01/12 08:35:48;;;;;;;;;;;;;;;7.30;82.42;100654.20;107087;1256;68077;-85
2023/01/12 08:38:18;;;;;;;;;;;;;;;7.40;82.60;100659.13;106970;1264;125300;-85
2023/01/12 08:44:02;;;;;;;;;;;;;;;7.60;82.27;100660.36;107099;1257;60366;-85
2023/01/12 08:46:30;;;;;;;;;;;;;;;7.60;82.05;100655.11;107345;1259;74724;-85
2023/01/12 08:48:57;;;;;;;;;;;;;;;7.61;81.87;100651.82;107414;1257;65001;-85
2023/01/12 08:51:26;;;;;;;;;;;;;;;7.62;81.89;100652.91;107184;1260;125358;-84
2023/01/12 08:53:54;;;;;;;;;;;;;;;7.68;81.92;100649.11;107314;1257;61366;-83
2023/01/12 08:56:21;;;;;;;;;;;;;;;7.77;81.91;100642.98;107360;1256;125536;-84
2023/01/12 08:58:50;;;;;;;;;;;;;;;7.90;81.86;100642.35;107369;1257;73513;-84
2023/01/12 09:01:30;;;;;;;;;;;;;;;8.03;81.83;100642.95;107209;1257;65727;-84
2023/01/12 09:04:11;;;;;;;;;;;;;;;8.13;81.59;100646.80;107012;1261;125260;-84
2023/01/12 09:06:41;;;;;;;;;;;;;;;8.15;81.22;100638.65;107251;1257;61201;-84
2023/01/12 09:09:18;;;;;;;;;;;;;;;8.14;81.05;100640.53;107005;1257;124403;-84
2023/01/12 09:11:50;;;;;;;;;;;;;;;8.13;80.96;100651.71;107045;1257;74535;-85
2023/01/12 09:14:39;;;;;;;;;;;;;;;8.09;80.76;100654.70;106916;1258;124337;-85
2023/01/12 09:17:14;;;;;;;;;;;;;;;8.03;80.71;100658.19;107067;1257;71478;-86
2023/01/12 09:19:49;;;;;;;;;;;;;;;7.99;80.74;100656.84;107102;1257;124163;-85
2023/01/12 09:22:38;;;;;;;;;;;;;;;7.96;80.68;100654.29;107195;1258;61170;-85
2023/01/12 09:25:11;;;;;;;;;;;;;;;7.94;80.73;100647.23;107233;1262;74104;-85
2023/01/12 09:27:39;;;;;;;;;;;;;;;7.95;80.80;100649.18;106811;1257;124926;-85
2023/01/12 09:30:07;;;;;;;;;;;;;;;8.00;80.72;100647.42;107003;1257;71552;-85
2023/01/12 09:32:35;;;;;;;;;;;;;;;8.05;80.77;100649.51;107078;1263;124620;-85
2023/01/12 09:35:03;;;;;;;;;;;;;;;8.13;80.73;100643.84;107215;1256;61391;-85
2023/01/12 09:37:31;;;;;;;;;;;;;;;8.17;80.66;100637.33;107272;1257;74409;-85
2023/01/12 09:40:04;;;;;;;;;;;;;;;8.22;80.45;100635.55;107130;1257;124847;-85
2023/01/12 09:48:24;;;;;;;;;;;;;;;8.19;80.26;100631.98;107300;1257;59796;-86
2023/01/12 09:50:53;;;;;;;;;;;;;;;8.26;80.31;100633.23;107160;1259;124739;-86
2023/01/12 09:56:36;;;;;;;;;;;;;;;8.24;79.72;100626.52;106990;1257;124548;-86
2023/01/12 09:59:28;;;;;;;;;;;;;;;8.14;79.55;100624.11;107211;1257;61286;-86
2023/01/12 10:01:56;;;;;;;;;;;;;;;8.09;79.71;100629.38;107071;1257;124255;-86
2023/01/12 10:04:27;;;;;;;;;;;;;;;8.16;79.87;100634.68;107126;1256;74825;-86
2023/01/12 10:06:56;;;;;;;;;;;;;;;8.25;79.92;100645.08;107186;1258;65671;-86
2023/01/12 10:09:57;;;;;;;;;;;;;;;8.29;79.73;100643.29;106823;1259;125700;-86
2023/01/12 10:12:33;;;;;;;;;;;;;;;8.34;79.78;100635.79;106994;1260;61196;-86
2023/01/12 10:15:25;;;;;;;;;;;;;;;8.32;79.37;100633.78;106967;1263;124896;-87
2023/01/12 10:18:10;;;;;;;;;;;;;;;8.22;79.08;100628.89;107270;1256;73083;-87
2023/01/12 10:21:00;;;;;;;;;;;;;;;8.12;79.20;100622.49;106951;1258;124709;-87
2023/01/12 10:23:35;;;;;;;;;;;;;;;8.11;79.29;100615.28;107061;1263;71453;-87
2023/01/12 10:26:30;;;;;;;;;;;;;;;8.11;79.33;100609.86;107131;1258;125114;-87
2023/01/12 10:38:55;;;;;;;;;;;;;;;8.44;79.45;100602.17;106868;1257;124505;-86
2023/01/12 10:41:34;;;;;;;;;;;;;;;8.51;79.36;100591.92;106846;1258;61408;-86
2023/01/12 10:44:01;;;;;;;;;;;;;;;8.52;79.10;100594.23;106941;1258;124238;-85
2023/01/12 10:46:56;;;;;;;;;;;;;;;8.52;79.03;100588.98;107048;1257;74915;-86
2023/01/12 10:49:23;;;;;;;;;;;;;;;8.51;78.84;100591.04;107044;1260;67086;-85
2023/01/12 10:51:52;;;;;;;;;;;;;;;8.45;78.72;100588.06;106833;1263;124560;-85
2023/01/12 10:54:32;;;;;;;;;;;;;;;8.43;78.80;100589.57;107171;1257;61461;-85
2023/01/12 10:57:03;;;;;;;;;;;;;;;8.43;78.95;100587.81;107159;1260;125331;-84
2023/01/12 10:59:34;;;;;;;;;;;;;;;8.44;78.87;100581.56;107190;1257;74229;-86
2023/01/12 11:02:19;;;;;;;;;;;;;;;8.46;78.90;100576.02;107065;1256;124922;-85
2023/01/12 11:04:54;;;;;;;;;;;;;;;8.50;78.87;100575.46;107019;1257;71069;-86
2023/01/12 11:07:24;;;;;;;;;;;;;;;8.53;78.84;100573.77;107146;1257;61331;-85
2023/01/12 11:10:22;;;;;;;;;;;;;;;8.57;78.91;100569.20;107025;1257;125129;-85
2023/01/12 11:13:00;;;;;;;;;;;;;;;8.65;78.78;100564.17;107259;1256;74892;-86
2023/01/12 11:15:49;;;;;;;;;;;;;;;8.70;78.73;100561.89;107142;1258;124924;-86
2023/01/12 11:18:37;;;;;;;;;;;;;;;8.78;78.66;100553.55;107239;1256;71395;-86
2023/01/12 11:24:04;;;;;;;;;;;;;;;8.90;78.54;100536.38;107107;1256;61240;-85
2023/01/12 11:26:39;;;;;;;;;;;;;;;8.99;78.52;100528.59;106882;1256;124170;-85
2023/01/12 11:29:28;;;;;;;;;;;;;;;9.02;78.25;100524.13;107784;1257;67046;-84
2023/01/12 11:32:13;;;;;;;;;;;;;;;9.01;78.12;100514.81;107099;1256;124103;-84
2023/01/12 11:35:09;;;;;;;;;;;;;;;8.93;77.92;100506.02;107284;1257;61311;-84
2023/01/12 11:37:42;;;;;;;;;;;;;;;8.88;77.98;100511.30;106585;1266;61269;-84
2023/01/12 11:40:36;;;;;;;;;;;;;;;8.85;77.93;100507.71;106518;1267;125278;-84
2023/01/12 11:46:19;;;;;;;;;;;;;;;8.84;77.99;100507.69;106528;1265;124758;-84
2023/01/12 11:49:08;;;;;;;;;;;;;;;8.84;77.91;100507.34;106192;1272;61395;-84
2023/01/12 11:51:41;;;;;;;;;;;;;;;8.81;77.87;100507.09;105968;1274;124930;-83
2023/01/12 11:54:16;;;;;;;;;;;;;;;8.82;77.94;100502.57;106065;1273;73463;-84
2023/01/12 11:56:50;;;;;;;;;;;;;;;8.85;78.07;100499.67;105867;1273;126177;-84
2023/01/12 11:59:24;;;;;;;;;;;;;;;8.86;77.99;100502.17;106098;1271;71099;-84
2023/01/12 12:02:09;;;;;;;;;;;;;;;8.88;77.88;100497.14;106221;1273;125160;-84
2023/01/12 12:04:56;;;;;;;;;;;;;;;8.91;77.91;100493.72;106255;1273;61400;-84
2023/01/12 12:10:47;;;;;;;;;;;;;;;8.98;77.84;100482.36;106091;1273;65793;-84
2023/01/12 12:13:25;;;;;;;;;;;;;;;9.03;77.72;100474.45;106046;1272;71361;-84
2023/01/12 12:15:55;;;;;;;;;;;;;;;9.08;77.82;100469.86;106544;1263;125261;-83
2023/01/12 12:18:34;;;;;;;;;;;;;;;9.16;77.72;100462.18;106460;1264;61553;-84
2023/01/12 12:21:07;;;;;;;;;;;;;;;9.18;77.57;100456.11;106444;1265;124409;-84
2023/01/12 12:23:53;;;;;;;;;;;;;;;9.17;77.43;100448.19;106961;1264;67108;-83
2023/01/12 12:26:35;;;;;;;;;;;;;;;9.13;77.24;100440.77;107233;1256;124816;-84
2023/01/12 12:29:28;;;;;;;;;;;;;;;9.08;77.21;100433.44;107217;1258;61417;-84
2023/01/12 12:32:04;;;;;;;;;;;;;;;9.05;77.21;100428.13;107087;1257;124828;-84
2023/01/12 12:34:50;;;;;;;;;;;;;;;9.05;77.19;100423.05;107068;1257;74269;-84
2023/01/12 12:37:52;;;;;;;;;;;;;;;9.05;77.20;100415.52;107317;1260;67921;-84
2023/01/12 12:40:25;;;;;;;;;;;;;;;9.02;77.07;100408.95;107074;1258;72992;-83
2023/01/12 12:46:04;;;;;;;;;;;;;;;8.90;76.99;100393.24;107014;1257;124322;-84
2023/01/12 12:48:47;;;;;;;;;;;;;;;8.88;76.96;100379.73;107141;1256;74715;-84
2023/01/12 12:51:14;;;;;;;;;;;;;;;8.88;77.07;100380.25;107250;1257;124077;-84
2023/01/12 12:53:46;;;;;;;;;;;;;;;8.86;77.05;100378.27;107457;1256;70897;-84
2023/01/12 12:56:14;;;;;;;;;;;;;;;8.82;76.98;100379.04;107284;1256;124693;-84
2023/01/12 13:02:23;;;;;;;;;;;;;;;8.66;76.94;100386.67;106976;1260;124041;-85
2023/01/12 13:04:57;;;;;;;;;;;;;;;8.61;76.99;100376.91;107184;1256;65476;-86
2023/01/12 13:07:24;;;;;;;;;;;;;;;8.53;76.98;100377.23;107217;1256;72461;-85
2023/01/12 13:10:27;;;;;;;;;;;;;;;8.46;77.04;100376.34;107017;1257;124767;-85
2023/01/12 13:13:01;;;;;;;;;;;;;;;8.41;77.07;100381.25;107197;1257;61427;-88
2023/01/12 13:15:38;;;;;;;;;;;;;;;8.41;77.26;100381.76;106774;1257;124726;-83
2023/01/12 13:18:08;;;;;;;;;;;;;;;8.43;77.38;100379.23;107118;1259;66819;-85
2023/01/12 13:20:49;;;;;;;;;;;;;;;8.47;77.44;100374.98;106953;1257;125335;-84
2023/01/12 13:23:34;;;;;;;;;;;;;;;8.50;77.41;100371.19;107044;1256;61341;-85
2023/01/12 13:26:19;;;;;;;;;;;;;;;8.55;77.34;100372.02;106910;1260;124840;-86
2023/01/12 13:28:46;;;;;;;;;;;;;;;8.57;77.35;100369.11;107370;1257;74325;-83
2023/01/12 13:31:36;;;;;;;;;;;;;;;8.61;77.28;100371.31;107296;1257;67732;-84
2023/01/12 13:34:34;;;;;;;;;;;;;;;8.63;77.26;100361.23;106945;1256;125389;-87
2023/01/12 13:40:36;;;;;;;;;;;;;;;8.63;77.10;100361.04;106984;1258;123924;-87
2023/01/12 13:43:15;;;;;;;;;;;;;;;8.60;77.17;100356.07;107031;1260;72489;-87
2023/01/12 13:45:50;;;;;;;;;;;;;;;8.58;77.05;100354.61;106850;1256;124009;-87
2023/01/12 13:48:25;;;;;;;;;;;;;;;8.55;77.08;100355.09;107178;1256;72314;-87
2023/01/12 13:51:04;;;;;;;;;;;;;;;8.58;77.25;100354.41;107163;1260;124388;-84
2023/01/12 13:53:33;;;;;;;;;;;;;;;8.55;77.17;100348.10;107051;1256;61283;-86
2023/01/12 13:56:03;;;;;;;;;;;;;;;8.53;77.10;100343.80;106783;1261;124123;-85
2023/01/12 13:58:37;;;;;;;;;;;;;;;8.50;77.14;100336.58;107200;1257;65591;-86
2023/01/12 14:04:16;;;;;;;;;;;;;;;8.48;77.07;100337.56;106978;1262;125101;-86
2023/01/12 14:06:51;;;;;;;;;;;;;;;8.44;77.15;100333.44;107157;1257;59732;-86
2023/01/12 14:09:59;;;;;;;;;;;;;;;8.42;77.31;100334.92;106927;1262;124669;-85
2023/01/12 14:12:46;;;;;;;;;;;;;;;8.42;77.43;100327.06;106845;1258;66111;-85
2023/01/12 14:18:27;;;;;;;;;;;;;;;8.42;77.57;100305.77;106997;1260;61116;-85
2023/01/12 14:20:54;;;;;;;;;;;;;;;8.43;77.66;100306.14;107013;1257;124895;-84
2023/01/12 14:23:23;;;;;;;;;;;;;;;8.44;77.60;100305.27;107074;1256;73090;-85
2023/01/12 14:26:03;;;;;;;;;;;;;;;8.44;77.62;100304.77;106995;1256;65870;-85